Terminal Aerodrome Forecast
Issued by NWS Jackson, MS

Home | Current Version | Previous Version | Text Only | Print | Product List | Glossary On
Versions: 1 2 3 4 5 6 7 8 9 10 11 12
000
FTUS44 KJAN 232332
TAFMEI
TAF
KMEI 232332Z 2400/2424 30010KT P6SM SCT025 BKN035 OVC040
     FM240200 32007KT P6SM BKN025
     FM241000 33006KT 6SM BR BKN015
     FM241700 33012G18KT P6SM BKN025
     FM241800 33011G17KT P6SM BKN050=

USA.gov is the U.S. government's official web portal to all federal, state and local government web resources and services.